Time;durP1;ratioP1;P1;durP2;ratioP2;P2;SDS_P1;SDS_P2;PMS_P1;PMS_P2;Temp;Humidity;BMP_temperature;BMP_pressure;BME280_temperature;BME280_humidity;BME280_pressure;Samples;Min_cycle;Max_cycle;Signal;HPM_P1;HPM_P2
2023/07/08 00:02:16;;;;;;;10.60;8.47;;;19.30;61.70;;;;;;5024635;28;20578;-69
2023/07/08 00:04:45;;;;;;;7.47;6.70;;;19.20;62.40;;;;;;5024286;28;20531;-69
2023/07/08 00:07:16;;;;;;;8.20;7.10;;;19.00;61.60;;;;;;5018132;28;20449;-70
2023/07/08 00:09:44;;;;;;;10.07;7.37;;;18.90;67.60;;;;;;5018180;28;20958;-69
2023/07/08 00:12:13;;;;;;;7.37;6.53;;;18.90;64.10;;;;;;5021141;28;20541;-70
2023/07/08 00:14:41;;;;;;;8.27;6.73;;;18.80;59.90;;;;;;5020450;28;20475;-70
2023/07/08 00:17:12;;;;;;;10.00;8.07;;;18.70;62.20;;;;;;5028764;28;21038;-70
2023/07/08 00:19:40;;;;;;;9.90;7.53;;;18.60;63.50;;;;;;5028174;28;20501;-70
2023/07/08 00:22:14;;;;;;;9.60;8.37;;;18.50;62.60;;;;;;5024508;28;20477;-70
2023/07/08 00:24:43;;;;;;;9.90;8.47;;;18.40;64.30;;;;;;5021579;28;20465;-70
2023/07/08 00:27:13;;;;;;;12.00;8.30;;;18.40;66.70;;;;;;5014993;28;20829;-70
2023/07/08 00:29:42;;;;;;;9.30;7.13;;;18.50;67.50;;;;;;5017273;28;20456;-70
2023/07/08 00:32:13;;;;;;;9.43;8.40;;;18.50;64.90;;;;;;5016018;28;20537;-69
2023/07/08 00:34:42;;;;;;;12.73;7.57;;;18.60;64.10;;;;;;5019175;28;20465;-69
2023/07/08 00:37:12;;;;;;;10.10;7.00;;;18.80;60.30;;;;;;5022788;28;20511;-69
2023/07/08 00:39:40;;;;;;;8.90;7.47;;;18.80;59.50;;;;;;5014900;28;20445;-69
2023/07/08 00:42:16;;;;;;;8.10;7.30;;;18.80;64.30;;;;;;5020360;28;20477;-69
2023/07/08 00:44:45;;;;;;;8.90;7.20;;;18.80;60.60;;;;;;5014829;28;21048;-69
2023/07/08 00:47:15;;;;;;;13.93;8.13;;;18.80;60.20;;;;;;5024960;28;20526;-69
2023/07/08 00:49:49;;;;;;;8.27;7.37;;;18.80;64.10;;;;;;5015695;28;20917;-69
2023/07/08 00:52:19;;;;;;;9.07;8.13;;;18.70;67.80;;;;;;5022630;28;20445;-69
2023/07/08 00:54:49;;;;;;;11.20;7.17;;;18.60;68.40;;;;;;5015204;28;20561;-69
2023/07/08 00:57:19;;;;;;;9.90;7.50;;;18.50;61.10;;;;;;5021711;28;20445;-69
2023/07/08 00:59:53;;;;;;;9.93;7.33;;;18.70;60.00;;;;;;5019139;28;20541;-69
2023/07/08 01:02:23;;;;;;;10.73;7.87;;;18.70;60.60;;;;;;5015103;28;20503;-69
2023/07/08 01:04:55;;;;;;;10.10;7.10;;;18.60;59.60;;;;;;5028308;28;20469;-70
2023/07/08 01:07:25;;;;;;;10.37;7.00;;;18.70;64.60;;;;;;5021303;28;20455;-69
2023/07/08 01:09:58;;;;;;;10.37;7.77;;;18.50;65.70;;;;;;5018517;28;20532;-69
2023/07/08 01:12:31;;;;;;;9.43;6.50;;;18.40;66.00;;;;;;5013128;28;21231;-69
2023/07/08 01:15:02;;;;;;;9.03;7.43;;;18.10;65.70;;;;;;5025751;28;21270;-69
2023/07/08 01:17:32;;;;;;;13.73;8.00;;;18.10;63.90;;;;;;5015648;28;20450;-69
2023/07/08 01:20:04;;;;;;;9.03;8.10;;;18.00;65.10;;;;;;5016768;28;20458;-69
2023/07/08 01:22:35;;;;;;;9.70;8.33;;;17.90;66.80;;;;;;5018751;28;20473;-69
2023/07/08 01:25:04;;;;;;;9.43;6.90;;;17.80;69.30;;;;;;5017296;28;20840;-69
2023/07/08 01:27:35;;;;;;;11.03;7.67;;;17.80;70.10;;;;;;5021418;28;21128;-70
2023/07/08 01:30:05;;;;;;;12.50;7.90;;;17.70;68.70;;;;;;5022010;28;20496;-69
2023/07/08 01:32:36;;;;;;;9.93;8.00;;;17.70;71.40;;;;;;5023872;28;20500;-70
2023/07/08 01:35:06;;;;;;;10.57;7.97;;;17.70;69.20;;;;;;5021140;28;20978;-70
2023/07/08 01:37:38;;;;;;;9.30;7.53;;;17.50;68.90;;;;;;5017399;28;20553;-69
2023/07/08 01:40:26;;;;;;;12.40;8.57;;;17.50;69.10;;;;;;5015596;28;20520;-69
2023/07/08 01:42:55;;;;;;;10.33;8.10;;;17.50;71.60;;;;;;5016786;28;20481;-69
2023/07/08 01:45:26;;;;;;;9.83;8.80;;;17.40;72.10;;;;;;5016241;28;20605;-69
2023/07/08 01:47:57;;;;;;;14.23;8.70;;;17.30;71.70;;;;;;5014091;28;21022;-70
2023/07/08 01:50:26;;;;;;;10.40;7.60;;;17.30;74.00;;;;;;5021710;28;20878;-68
2023/07/08 01:52:59;;;;;;;10.87;7.60;;;17.50;69.20;;;;;;5014940;28;20438;-68
2023/07/08 01:55:30;;;;;;;9.40;8.10;;;17.50;73.50;;;;;;5020966;28;20555;-69
2023/07/08 01:57:58;;;;;;;9.93;7.37;;;17.40;73.90;;;;;;5017680;28;21017;-69
2023/07/08 02:00:26;;;;;;;11.03;8.30;;;17.30;73.30;;;;;;5023886;28;20443;-69
2023/07/08 02:02:54;;;;;;;10.47;8.30;;;17.20;73.40;;;;;;5024838;28;20500;-69
2023/07/08 02:05:23;;;;;;;9.80;7.80;;;17.20;73.30;;;;;;5023061;28;21101;-69
2023/07/08 02:07:51;;;;;;;9.10;7.53;;;17.20;73.40;;;;;;5019396;28;20446;-69
2023/07/08 02:10:20;;;;;;;12.23;8.30;;;17.20;76.00;;;;;;5017309;28;20490;-69
2023/07/08 02:12:48;;;;;;;7.77;6.97;;;17.30;75.80;;;;;;5018801;28;20453;-69
2023/07/08 02:15:16;;;;;;;9.33;7.30;;;17.20;75.60;;;;;;5013607;28;20462;-68
2023/07/08 02:17:44;;;;;;;14.07;8.30;;;17.10;77.00;;;;;;5013128;28;20529;-69
2023/07/08 02:20:12;;;;;;;9.77;7.77;;;16.90;75.40;;;;;;5024385;28;20450;-69
2023/07/08 02:22:40;;;;;;;9.87;7.60;;;16.80;75.60;;;;;;5014269;28;20481;-69
2023/07/08 02:25:09;;;;;;;11.00;8.27;;;16.70;75.20;;;;;;5018135;28;20457;-69
2023/07/08 02:27:39;;;;;;;9.17;7.20;;;16.60;76.30;;;;;;5012606;28;20484;-69
2023/07/08 02:30:08;;;;;;;8.13;7.20;;;16.70;74.40;;;;;;5016685;28;20449;-69
2023/07/08 02:32:38;;;;;;;10.83;8.00;;;16.80;73.70;;;;;;5020024;28;20988;-69
2023/07/08 02:35:07;;;;;;;8.70;7.80;;;16.80;73.00;;;;;;5012345;28;20512;-70
2023/07/08 02:37:35;;;;;;;9.23;7.60;;;16.80;72.20;;;;;;5015010;28;20540;-69
2023/07/08 02:40:03;;;;;;;9.50;7.00;;;16.90;75.30;;;;;;5021331;28;20480;-70
2023/07/08 02:42:31;;;;;;;8.60;7.43;;;16.80;75.40;;;;;;5013199;28;20481;-70
2023/07/08 02:45:01;;;;;;;8.30;7.13;;;16.80;77.90;;;;;;5023819;28;20600;-69
2023/07/08 02:47:29;;;;;;;9.30;7.40;;;16.80;75.20;;;;;;5013066;28;20480;-70
2023/07/08 02:49:57;;;;;;;8.70;7.80;;;16.80;77.00;;;;;;5015947;28;20543;-70
2023/07/08 02:52:24;;;;;;;11.20;7.53;;;16.70;76.50;;;;;;5016490;28;20495;-69
2023/07/08 02:54:52;;;;;;;10.00;8.03;;;16.70;74.60;;;;;;5012168;28;21029;-69
2023/07/08 02:57:20;;;;;;;9.90;7.27;;;16.70;78.90;;;;;;5016706;28;20541;-69
2023/07/08 02:59:48;;;;;;;12.67;7.60;;;16.80;75.50;;;;;;5017243;28;20442;-69
2023/07/08 03:02:17;;;;;;;9.87;7.60;;;16.80;75.30;;;;;;5020436;28;20836;-69
2023/07/08 03:04:46;;;;;;;8.53;7.13;;;16.90;74.50;;;;;;5023676;28;20998;-69
2023/07/08 03:07:15;;;;;;;9.03;7.43;;;16.90;74.90;;;;;;5016510;28;20446;-70
2023/07/08 03:09:43;;;;;;;11.07;8.30;;;16.90;73.90;;;;;;5017626;28;20544;-70
2023/07/08 03:12:12;;;;;;;10.43;7.20;;;16.90;77.20;;;;;;5018171;28;20437;-69
2023/07/08 03:14:40;;;;;;;7.80;7.00;;;16.90;78.10;;;;;;5021985;28;20532;-69
2023/07/08 03:17:08;;;;;;;9.23;7.93;;;16.80;79.20;;;;;;5020829;28;20467;-69
2023/07/08 03:19:37;;;;;;;10.10;7.20;;;16.90;78.60;;;;;;5020727;28;20482;-70
2023/07/08 03:22:07;;;;;;;8.93;7.00;;;16.80;78.30;;;;;;5019655;28;20445;-70
2023/07/08 03:24:36;;;;;;;10.63;7.77;;;16.80;77.90;;;;;;5022130;28;20494;-70
2023/07/08 03:27:05;;;;;;;8.93;7.47;;;16.80;78.40;;;;;;5022768;28;20440;-69
2023/07/08 03:29:33;;;;;;;10.90;7.80;;;16.80;78.40;;;;;;5018148;28;21157;-70
2023/07/08 03:32:01;;;;;;;8.07;6.60;;;16.80;79.80;;;;;;5018820;28;20797;-70
2023/07/08 03:34:29;;;;;;;9.43;7.37;;;16.70;81.60;;;;;;5019456;28;20492;-70
2023/07/08 03:36:58;;;;;;;9.87;7.27;;;16.60;80.20;;;;;;5021630;28;20448;-70
2023/07/08 03:39:26;;;;;;;10.80;7.77;;;16.50;79.00;;;;;;5024331;28;20442;-70
2023/07/08 03:41:55;;;;;;;10.10;7.37;;;16.50;79.50;;;;;;5021618;28;20464;-70
2023/07/08 03:44:23;;;;;;;9.30;7.30;;;16.40;79.50;;;;;;5018232;28;20910;-70
2023/07/08 03:46:51;;;;;;;8.70;7.67;;;16.40;83.60;;;;;;5018224;28;20445;-69
2023/07/08 03:49:22;;;;;;;11.03;7.50;;;16.40;81.40;;;;;;5022068;28;20461;-70
2023/07/08 03:51:51;;;;;;;15.00;8.30;;;16.30;81.30;;;;;;5015853;28;20443;-69
2023/07/08 03:54:22;;;;;;;11.80;8.27;;;16.30;81.20;;;;;;5029867;28;20515;-69
2023/07/08 03:56:50;;;;;;;10.60;8.73;;;16.30;82.40;;;;;;5028283;28;20568;-69
2023/07/08 03:59:18;;;;;;;10.63;8.13;;;16.40;83.50;;;;;;5018620;28;20458;-69
2023/07/08 04:01:46;;;;;;;10.00;8.13;;;16.40;83.40;;;;;;5017104;28;20878;-70
2023/07/08 04:04:16;;;;;;;10.07;8.00;;;16.40;83.30;;;;;;5013811;28;20477;-69
2023/07/08 04:06:45;;;;;;;10.13;8.07;;;16.30;85.90;;;;;;5025442;28;20450;-70
2023/07/08 04:09:13;;;;;;;10.67;8.53;;;16.40;83.20;;;;;;5024156;28;20548;-70
2023/07/08 04:11:42;;;;;;;10.83;7.83;;;16.40;82.90;;;;;;5016223;28;20489;-70
2023/07/08 04:14:10;;;;;;;9.70;8.30;;;16.40;82.00;;;;;;5022213;28;20480;-70
2023/07/08 04:16:49;;;;;;;10.90;8.07;;;16.60;83.40;;;;;;5027161;28;20483;-70
2023/07/08 04:19:17;;;;;;;8.50;6.80;;;16.70;80.80;;;;;;5020772;28;21039;-69
2023/07/08 04:21:46;;;;;;;9.30;8.20;;;16.90;83.10;;;;;;5022164;28;20551;-69
2023/07/08 04:24:16;;;;;;;12.70;8.80;;;16.80;82.90;;;;;;5017610;28;20566;-69
2023/07/08 04:26:47;;;;;;;12.33;8.70;;;16.80;82.80;;;;;;5018083;28;20460;-68
2023/07/08 04:29:19;;;;;;;10.17;7.83;;;17.00;81.10;;;;;;5020348;28;20889;-70
2023/07/08 04:31:47;;;;;;;11.13;7.50;;;17.10;82.40;;;;;;5025557;28;20817;-70
2023/07/08 04:34:16;;;;;;;10.70;8.57;;;17.20;84.20;;;;;;5021054;28;21030;-70
2023/07/08 04:36:45;;;;;;;11.07;8.70;;;17.20;81.90;;;;;;5018560;28;20456;-70
2023/07/08 04:39:14;;;;;;;10.50;8.10;;;17.20;82.30;;;;;;5023101;28;20497;-70
2023/07/08 04:41:43;;;;;;;9.13;8.10;;;17.40;82.10;;;;;;5020141;28;21009;-70
2023/07/08 04:44:13;;;;;;;8.93;7.60;;;17.40;82.10;;;;;;5024787;28;20557;-70
2023/07/08 04:46:45;;;;;;;9.97;7.53;;;17.70;80.90;;;;;;5022163;28;20456;-70
2023/07/08 04:49:13;;;;;;;10.20;7.67;;;18.00;77.10;;;;;;5015142;28;20880;-70
2023/07/08 04:51:42;;;;;;;12.53;8.17;;;18.20;75.10;;;;;;5019420;28;20878;-69
2023/07/08 04:54:10;;;;;;;8.50;7.23;;;18.40;77.80;;;;;;5018985;28;20842;-69
2023/07/08 04:56:40;;;;;;;8.23;7.17;;;18.60;74.60;;;;;;5021571;28;20888;-68
2023/07/08 04:59:09;;;;;;;11.87;8.97;;;18.70;74.80;;;;;;5024975;28;20496;-70
2023/07/08 05:01:39;;;;;;;10.33;8.10;;;18.90;74.50;;;;;;5025127;28;20477;-69
2023/07/08 05:04:08;;;;;;;9.40;8.10;;;19.10;75.80;;;;;;5018737;28;20551;-69
2023/07/08 05:06:36;;;;;;;10.40;7.93;;;19.50;75.50;;;;;;5021815;28;20497;-70
2023/07/08 05:09:05;;;;;;;9.17;7.53;;;19.70;78.90;;;;;;5019874;28;20453;-70
2023/07/08 05:11:33;;;;;;;9.70;7.50;;;19.80;72.00;;;;;;5020391;28;21190;-70
2023/07/08 05:14:01;;;;;;;8.50;7.20;;;19.80;76.20;;;;;;5014777;28;20978;-71
2023/07/08 05:16:29;;;;;;;8.50;7.50;;;19.70;74.80;;;;;;5021730;28;21020;-70
2023/07/08 05:18:59;;;;;;;8.43;7.57;;;19.70;70.20;;;;;;5024481;28;20516;-70
2023/07/08 05:21:33;;;;;;;9.37;8.37;;;19.70;74.40;;;;;;5025759;28;20441;-70
2023/07/08 05:24:01;;;;;;;11.53;8.30;;;19.60;70.10;;;;;;5015610;28;20551;-71
2023/07/08 05:26:29;;;;;;;10.43;7.77;;;19.60;70.10;;;;;;5018275;28;20786;-70
2023/07/08 05:28:58;;;;;;;10.03;7.70;;;19.70;71.60;;;;;;5018617;28;20445;-70
2023/07/08 05:31:25;;;;;;;8.73;7.80;;;19.70;73.50;;;;;;5020702;28;20956;-70
2023/07/08 05:34:10;;;;;;;12.57;8.63;;;19.90;71.10;;;;;;5016394;28;20449;-70
2023/07/08 05:36:38;;;;;;;10.93;8.20;;;20.20;70.60;;;;;;5021294;28;20449;-70
2023/07/08 05:39:07;;;;;;;9.43;7.50;;;20.40;69.20;;;;;;5018338;28;20499;-70
2023/07/08 05:41:35;;;;;;;8.23;7.40;;;20.80;69.90;;;;;;5019065;28;20453;-70
2023/07/08 05:44:03;;;;;;;9.90;8.20;;;21.00;71.10;;;;;;5013798;28;20485;-70
2023/07/08 05:46:31;;;;;;;8.67;7.77;;;21.00;70.50;;;;;;5019031;28;20549;-70
2023/07/08 05:48:59;;;;;;;8.80;7.50;;;21.10;72.40;;;;;;5019349;28;20448;-69
2023/07/08 05:51:30;;;;;;;9.13;7.50;;;21.20;67.90;;;;;;5019804;28;20458;-69
2023/07/08 05:53:58;;;;;;;9.33;7.93;;;21.40;68.80;;;;;;5015087;28;20450;-70
2023/07/08 05:56:26;;;;;;;11.00;9.27;;;21.40;71.10;;;;;;5012585;28;20509;-70
2023/07/08 05:58:54;;;;;;;9.60;7.70;;;21.30;70.00;;;;;;5026297;28;20453;-69
2023/07/08 06:01:22;;;;;;;9.40;8.50;;;21.20;66.70;;;;;;5019592;28;20939;-69
2023/07/08 06:03:50;;;;;;;11.80;8.83;;;21.20;67.70;;;;;;5021345;28;20840;-69
2023/07/08 06:06:18;;;;;;;9.23;8.10;;;21.20;66.40;;;;;;5016193;28;20869;-69
2023/07/08 06:08:47;;;;;;;9.73;8.03;;;21.20;66.90;;;;;;5022058;28;20540;-70
2023/07/08 06:11:15;;;;;;;10.73;8.53;;;21.10;68.00;;;;;;5022312;28;20549;-69
2023/07/08 06:13:43;;;;;;;9.13;7.77;;;21.30;66.40;;;;;;5022542;28;20456;-69
2023/07/08 06:16:11;;;;;;;10.90;8.80;;;21.40;65.30;;;;;;5021802;28;21010;-69
2023/07/08 06:18:39;;;;;;;11.77;8.57;;;21.50;65.70;;;;;;5017950;28;20493;-70
2023/07/08 06:21:07;;;;;;;8.97;7.90;;;21.60;65.30;;;;;;5022227;28;20503;-69
2023/07/08 06:23:35;;;;;;;10.30;9.30;;;21.70;63.60;;;;;;5016207;28;20460;-69
2023/07/08 06:26:05;;;;;;;11.67;8.43;;;21.80;63.30;;;;;;5015848;28;21062;-69
2023/07/08 06:28:33;;;;;;;11.40;9.30;;;21.90;70.10;;;;;;5020866;28;20449;-71
2023/07/08 06:31:01;;;;;;;10.50;8.77;;;22.00;67.20;;;;;;5021912;28;20485;-70
2023/07/08 06:33:29;;;;;;;9.50;8.50;;;22.30;63.50;;;;;;5015923;28;20966;-70
2023/07/08 06:35:57;;;;;;;9.63;8.47;;;22.40;67.20;;;;;;5021523;28;20465;-71
2023/07/08 06:38:25;;;;;;;9.00;8.10;;;22.70;61.70;;;;;;5019610;28;20473;-71
2023/07/08 06:40:53;;;;;;;9.40;8.40;;;22.80;62.70;;;;;;5015635;28;20487;-70
2023/07/08 06:43:22;;;;;;;10.07;8.77;;;23.00;61.40;;;;;;5012812;28;20454;-70
2023/07/08 06:45:50;;;;;;;9.73;8.53;;;23.20;60.90;;;;;;5017983;28;21308;-69
2023/07/08 06:48:18;;;;;;;10.53;8.63;;;23.40;60.70;;;;;;5025012;28;20458;-70
2023/07/08 06:50:47;;;;;;;11.60;8.47;;;23.50;58.40;;;;;;5018760;28;20899;-69
2023/07/08 06:53:15;;;;;;;9.43;8.50;;;23.80;58.00;;;;;;5025891;28;20590;-70
2023/07/08 06:55:45;;;;;;;13.17;8.63;;;24.10;58.20;;;;;;5020996;28;20498;-69
2023/07/08 06:58:13;;;;;;;9.43;8.43;;;24.40;56.70;;;;;;5018852;28;21009;-69
2023/07/08 07:00:44;;;;;;;8.67;7.30;;;24.70;55.90;;;;;;5022431;28;20851;-70
2023/07/08 07:03:13;;;;;;;11.70;8.00;;;25.00;54.60;;;;;;5021186;28;20477;-68
2023/07/08 07:05:41;;;;;;;9.87;8.67;;;25.30;53.70;;;;;;5018885;28;21104;-69
2023/07/08 07:08:09;;;;;;;8.90;8.00;;;25.70;53.50;;;;;;5014625;28;20442;-70
2023/07/08 07:10:37;;;;;;;8.50;7.63;;;26.10;52.40;;;;;;5019691;28;20450;-69
2023/07/08 07:13:05;;;;;;;9.10;7.83;;;26.30;51.90;;;;;;5014339;28;20450;-70
2023/07/08 07:15:33;;;;;;;9.40;7.83;;;26.50;51.90;;;;;;5018215;28;20524;-70
2023/07/08 07:18:03;;;;;;;8.83;7.60;;;26.70;50.70;;;;;;5012358;28;20450;-70
2023/07/08 07:20:31;;;;;;;8.83;7.63;;;26.90;49.80;;;;;;5020908;28;20520;-70
2023/07/08 07:22:59;;;;;;;11.43;8.90;;;27.00;51.00;;;;;;5017358;28;20512;-69
2023/07/08 07:25:27;;;;;;;9.43;7.77;;;27.20;49.80;;;;;;5015099;28;20485;-69
2023/07/08 07:27:55;;;;;;;8.63;7.70;;;27.30;49.40;;;;;;5015102;28;20516;-69
2023/07/08 07:30:23;;;;;;;9.27;8.30;;;27.50;47.30;;;;;;5013714;28;20452;-69
2023/07/08 07:32:51;;;;;;;9.40;8.43;;;27.60;49.10;;;;;;5018962;28;21199;-69
2023/07/08 07:35:20;;;;;;;7.70;6.90;;;27.60;50.50;;;;;;5011128;28;20528;-69
2023/07/08 07:37:48;;;;;;;8.23;7.37;;;27.70;50.70;;;;;;5014136;28;20446;-69
2023/07/08 07:40:18;;;;;;;7.90;7.10;;;27.70;51.60;;;;;;5021306;28;20456;-69
2023/07/08 07:42:47;;;;;;;9.23;7.63;;;27.80;51.10;;;;;;5015477;28;20506;-70
2023/07/08 07:45:15;;;;;;;8.50;7.57;;;27.80;48.10;;;;;;5015860;28;20468;-69
2023/07/08 07:47:44;;;;;;;7.53;6.73;;;27.80;50.50;;;;;;5013515;28;20477;-69
2023/07/08 07:50:12;;;;;;;8.57;7.60;;;27.80;51.50;;;;;;5020713;28;20548;-70
2023/07/08 07:52:41;;;;;;;9.87;7.53;;;27.80;50.80;;;;;;5014738;28;20446;-71
2023/07/08 07:55:13;;;;;;;8.80;7.53;;;27.90;50.60;;;;;;5013271;28;20466;-70
2023/07/08 07:57:41;;;;;;;9.03;7.43;;;28.00;50.30;;;;;;5017872;28;20449;-70
2023/07/08 08:00:11;;;;;;;8.03;6.80;;;28.10;48.40;;;;;;5028655;28;20449;-70
2023/07/08 08:02:38;;;;;;;8.50;7.30;;;28.30;49.40;;;;;;5024649;28;20477;-70
2023/07/08 08:05:07;;;;;;;8.70;7.80;;;28.30;49.60;;;;;;5017955;28;21010;-70
2023/07/08 08:07:36;;;;;;;11.10;7.10;;;28.20;49.30;;;;;;5016655;28;20451;-71
2023/07/08 08:10:07;;;;;;;7.97;6.87;;;28.30;48.70;;;;;;5018499;28;20456;-71
2023/07/08 08:12:35;;;;;;;9.63;7.93;;;28.40;48.90;;;;;;5022651;28;20522;-71
2023/07/08 08:15:18;;;;;;;9.30;7.27;;;28.50;46.30;;;;;;5020715;28;20469;-70
2023/07/08 08:17:48;;;;;;;8.33;7.00;;;28.10;46.00;;;;;;5026267;28;20453;-70
2023/07/08 08:20:17;;;;;;;9.13;6.97;;;28.00;46.60;;;;;;5021962;28;20544;-71
2023/07/08 08:22:46;;;;;;;9.27;7.43;;;28.00;47.00;;;;;;5022577;28;20457;-70
2023/07/08 08:25:15;;;;;;;7.67;6.90;;;28.10;46.00;;;;;;5023511;28;20479;-71
2023/07/08 08:27:43;;;;;;;9.00;6.60;;;28.10;45.80;;;;;;5024786;28;20843;-72
2023/07/08 08:30:13;;;;;;;8.60;6.50;;;28.00;46.60;;;;;;5025497;28;20867;-70
2023/07/08 08:32:41;;;;;;;7.60;6.43;;;28.00;46.80;;;;;;5019366;28;20441;-71
2023/07/08 08:35:09;;;;;;;8.37;6.97;;;28.00;45.60;;;;;;5016064;28;20472;-69
2023/07/08 08:37:37;;;;;;;9.37;7.10;;;28.00;46.30;;;;;;5017809;28;20508;-70
2023/07/08 08:40:07;;;;;;;8.23;6.50;;;28.20;46.20;;;;;;5018299;28;20452;-70
2023/07/08 08:42:43;;;;;;;7.43;6.63;;;28.20;46.20;;;;;;5018537;28;20800;-68
2023/07/08 08:45:14;;;;;;;8.60;6.30;;;28.30;46.10;;;;;;5016573;28;20493;-70
2023/07/08 08:47:44;;;;;;;8.37;6.53;;;28.50;45.70;;;;;;5018640;28;20842;-71
2023/07/08 08:50:27;;;;;;;7.73;6.80;;;28.80;46.10;;;;;;5023376;28;20880;-71
2023/07/08 08:52:56;;;;;;;7.57;6.23;;;28.90;45.60;;;;;;5015429;28;20456;-70
2023/07/08 08:55:25;;;;;;;9.20;5.87;;;28.80;45.10;;;;;;5022978;28;20550;-72
2023/07/08 08:58:05;;;;;;;7.27;6.40;;;28.80;45.60;;;;;;5017929;28;20482;-70
2023/07/08 09:00:45;;;;;;;7.70;6.90;;;29.00;45.00;;;;;;5022038;28;20964;-72
2023/07/08 09:03:16;;;;;;;8.90;6.20;;;29.20;46.10;;;;;;5022285;28;20461;-71
2023/07/08 09:05:46;;;;;;;8.00;5.53;;;29.40;44.20;;;;;;5023087;28;20483;-71
2023/07/08 09:08:19;;;;;;;6.47;5.87;;;29.60;44.00;;;;;;5026822;28;20451;-71
2023/07/08 09:10:52;;;;;;;8.80;5.73;;;29.80;44.90;;;;;;5019576;28;20481;-72
2023/07/08 09:13:26;;;;;;;6.43;5.70;;;30.00;43.00;;;;;;5013827;28;20906;-72
2023/07/08 09:15:59;;;;;;;8.10;6.53;;;30.10;41.60;;;;;;5014895;28;20468;-70
2023/07/08 09:18:52;;;;;;;6.27;5.17;;;30.40;42.90;;;;;;5024810;28;20476;-71
2023/07/08 09:21:26;;;;;;;5.37;4.83;;;30.60;42.00;;;;;;5027751;28;20456;-70
2023/07/08 09:24:00;;;;;;;12.50;5.10;;;30.80;41.70;;;;;;5020691;28;20867;-69
2023/07/08 09:26:31;;;;;;;6.57;5.20;;;30.90;42.00;;;;;;5022869;28;20479;-73
2023/07/08 09:29:00;;;;;;;5.23;4.23;;;31.10;40.60;;;;;;5015514;28;20529;-69
2023/07/08 09:31:32;;;;;;;4.73;4.00;;;31.20;40.50;;;;;;5019079;28;20445;-72
2023/07/08 09:34:11;;;;;;;5.50;3.97;;;31.40;40.80;;;;;;5021005;28;20533;-72
2023/07/08 09:36:41;;;;;;;4.30;3.37;;;31.50;39.20;;;;;;5020503;28;20966;-72
2023/07/08 09:39:14;;;;;;;4.83;3.83;;;31.20;38.90;;;;;;5018820;28;20453;-71
2023/07/08 09:41:45;;;;;;;7.93;4.30;;;31.20;41.50;;;;;;5016774;28;20449;-71
2023/07/08 09:44:19;;;;;;;4.33;3.10;;;31.30;42.00;;;;;;5018740;28;20453;-71
2023/07/08 09:46:47;;;;;;;4.60;3.37;;;31.50;40.50;;;;;;5019885;28;21049;-71
2023/07/08 09:49:22;;;;;;;5.10;3.27;;;31.70;39.20;;;;;;5022716;28;21030;-71
2023/07/08 09:51:51;;;;;;;3.60;3.07;;;31.90;39.10;;;;;;5019010;28;20802;-70
2023/07/08 09:54:22;;;;;;;3.90;3.33;;;31.90;38.90;;;;;;5020815;28;20465;-70
2023/07/08 09:57:00;;;;;;;4.90;3.57;;;31.70;39.20;;;;;;5017648;28;20473;-71
2023/07/08 09:59:39;;;;;;;4.83;3.50;;;31.80;38.80;;;;;;5026367;28;20543;-72
2023/07/08 10:02:27;;;;;;;6.10;3.10;;;32.20;38.30;;;;;;5024539;28;20503;-70
2023/07/08 10:04:58;;;;;;;3.60;3.00;;;32.70;38.20;;;;;;5023698;28;20480;-72
2023/07/08 10:07:29;;;;;;;4.00;3.23;;;33.40;37.10;;;;;;5020703;28;21316;-72
2023/07/08 10:10:00;;;;;;;4.57;2.97;;;34.00;35.10;;;;;;5023226;28;20851;-72
2023/07/08 10:12:29;;;;;;;3.67;3.27;;;34.50;35.60;;;;;;5020739;28;20542;-71
2023/07/08 10:15:02;;;;;;;3.40;3.10;;;34.90;35.20;;;;;;5022062;28;20492;-71
2023/07/08 10:17:31;;;;;;;3.57;3.27;;;34.80;33.40;;;;;;5018487;28;20489;-71
2023/07/08 10:19:59;;;;;;;4.70;4.00;;;34.50;34.50;;;;;;5015845;28;20881;-72
2023/07/08 10:22:38;;;;;;;4.60;3.40;;;34.40;34.30;;;;;;5021284;28;20457;-73
2023/07/08 10:25:27;;;;;;;5.53;3.50;;;34.40;35.00;;;;;;5019422;28;20551;-71
2023/07/08 10:28:01;;;;;;;4.67;3.80;;;34.90;35.40;;;;;;5016551;28;20488;-74
2023/07/08 10:30:36;;;;;;;6.40;4.33;;;35.40;35.50;;;;;;5021578;28;20495;-72
2023/07/08 10:33:35;;;;;;;5.23;3.57;;;36.00;34.60;;;;;;5019885;28;20484;-69
2023/07/08 10:36:19;;;;;;;5.43;4.10;;;36.20;32.00;;;;;;5021526;28;20531;-73
2023/07/08 10:39:06;;;;;;;5.47;4.87;;;35.10;33.40;;;;;;5025428;28;20528;-69
2023/07/08 10:41:55;;;;;;;7.03;5.13;;;34.00;36.20;;;;;;5020636;28;20849;-70
2023/07/08 10:44:29;;;;;;;7.30;5.50;;;33.30;37.80;;;;;;5017465;28;20468;-72
2023/07/08 10:47:09;;;;;;;5.70;4.87;;;32.70;39.00;;;;;;5023641;28;20956;-72
2023/07/08 10:49:49;;;;;;;6.40;5.80;;;32.50;38.80;;;;;;5024766;28;20882;-71
2023/07/08 10:52:43;;;;;;;6.37;5.30;;;32.70;38.60;;;;;;5021007;28;20547;-71
2023/07/08 10:55:20;;;;;;;6.10;5.50;;;33.20;39.00;;;;;;5021738;28;21200;-72
2023/07/08 10:58:14;;;;;;;5.50;4.93;;;34.00;37.00;;;;;;5024378;28;20444;-73
2023/07/08 11:01:04;;;;;;;5.27;4.70;;;34.60;35.60;;;;;;5022319;28;20959;-72
2023/07/08 11:04:00;;;;;;;6.73;4.87;;;34.80;34.90;;;;;;5018078;28;20970;-71
2023/07/08 11:06:45;;;;;;;6.80;4.90;;;35.10;35.30;;;;;;5022136;28;20480;-71
2023/07/08 11:09:18;;;;;;;4.70;4.20;;;35.30;36.20;;;;;;5016169;28;20495;-72
2023/07/08 11:11:51;;;;;;;4.50;4.10;;;35.60;33.70;;;;;;5015448;28;20552;-74
2023/07/08 11:14:27;;;;;;;4.60;4.20;;;35.80;33.80;;;;;;5018629;28;20471;-72
2023/07/08 11:17:01;;;;;;;5.90;3.83;;;36.10;34.30;;;;;;5019327;28;20444;-72
2023/07/08 11:19:36;;;;;;;4.73;3.90;;;36.30;32.80;;;;;;5018761;28;20452;-71
2023/07/08 11:22:10;;;;;;;5.50;4.30;;;36.50;32.40;;;;;;5018719;28;20471;-71
2023/07/08 11:24:45;;;;;;;4.80;4.20;;;36.50;31.80;;;;;;5021465;28;20497;-73
2023/07/08 11:27:19;;;;;;;5.13;4.10;;;36.60;32.90;;;;;;5019015;28;21001;-72
2023/07/08 11:29:51;;;;;;;4.20;3.20;;;36.70;35.10;;;;;;5022732;28;20513;-71
2023/07/08 11:32:21;;;;;;;4.83;3.87;;;37.10;30.80;;;;;;5017154;28;21016;-71
2023/07/08 11:34:53;;;;;;;6.83;4.70;;;37.10;30.70;;;;;;5024301;28;20523;-71
2023/07/08 11:37:22;;;;;;;4.00;3.60;;;37.50;31.10;;;;;;5023203;28;20449;-73
2023/07/08 11:39:55;;;;;;;3.80;3.23;;;38.10;28.90;;;;;;5025965;28;20543;-72
2023/07/08 11:42:30;;;;;;;4.43;3.40;;;38.10;29.30;;;;;;5024731;28;20521;-73
2023/07/08 11:45:01;;;;;;;5.63;3.63;;;38.10;29.50;;;;;;5024418;28;20464;-72
2023/07/08 11:47:38;;;;;;;4.13;3.73;;;38.20;30.00;;;;;;5025626;28;20472;-73
2023/07/08 11:50:22;;;;;;;3.50;3.20;;;38.60;29.10;;;;;;5022232;28;20483;-72
2023/07/08 11:52:55;;;;;;;5.43;3.80;;;38.60;29.40;;;;;;5025995;28;20591;-70
2023/07/08 11:55:28;;;;;;;3.97;3.20;;;39.10;29.60;;;;;;5024489;28;20551;-72
2023/07/08 11:58:01;;;;;;;5.43;3.60;;;39.40;28.70;;;;;;5023796;28;20456;-71
2023/07/08 12:00:33;;;;;;;4.73;3.27;;;39.40;27.60;;;;;;5024730;28;20448;-72
2023/07/08 12:03:18;;;;;;;4.30;3.57;;;39.30;28.10;;;;;;5021633;28;20483;-74
2023/07/08 12:05:48;;;;;;;3.83;2.83;;;38.90;28.50;;;;;;5023264;28;20546;-72
2023/07/08 12:08:20;;;;;;;3.33;3.03;;;39.20;28.60;;;;;;5023071;28;20476;-70
2023/07/08 12:10:52;;;;;;;4.00;3.60;;;39.70;27.70;;;;;;5025705;28;20440;-71
2023/07/08 12:13:24;;;;;;;4.40;3.53;;;40.00;27.50;;;;;;5023611;28;20452;-72
2023/07/08 12:15:54;;;;;;;2.80;2.57;;;39.90;28.60;;;;;;5024309;28;20464;-73
2023/07/08 12:18:25;;;;;;;4.90;3.50;;;40.10;27.60;;;;;;5025169;28;20441;-72
2023/07/08 12:20:57;;;;;;;5.97;3.43;;;40.30;26.90;;;;;;5026581;28;20444;-69
2023/07/08 12:23:27;;;;;;;4.40;3.53;;;40.40;27.30;;;;;;5022794;28;20542;-72
2023/07/08 12:25:56;;;;;;;4.73;3.00;;;40.50;28.50;;;;;;5019707;28;20479;-69
2023/07/08 12:28:25;;;;;;;4.00;3.10;;;40.60;27.50;;;;;;5025834;28;20476;-70
2023/07/08 12:30:54;;;;;;;3.80;3.50;;;40.60;26.40;;;;;;5021249;28;20950;-72
2023/07/08 12:33:28;;;;;;;4.17;3.77;;;40.60;26.60;;;;;;5018480;28;20449;-70
2023/07/08 12:35:57;;;;;;;3.13;2.83;;;40.30;25.70;;;;;;5022261;28;20556;-71
2023/07/08 12:38:32;;;;;;;3.17;2.70;;;39.30;26.60;;;;;;5016519;28;20445;-70
2023/07/08 12:41:03;;;;;;;2.60;2.23;;;39.00;27.40;;;;;;5025389;28;21025;-71
2023/07/08 12:43:31;;;;;;;3.77;3.30;;;39.00;28.40;;;;;;5022486;28;20512;-73
2023/07/08 12:46:00;;;;;;;3.30;3.00;;;39.70;27.50;;;;;;5021882;28;20721;-71
2023/07/08 12:48:32;;;;;;;4.73;3.20;;;40.30;27.30;;;;;;5024895;28;20516;-69
2023/07/08 12:51:03;;;;;;;4.03;3.03;;;40.60;25.60;;;;;;5023444;28;20459;-72
2023/07/08 12:53:33;;;;;;;3.20;2.90;;;41.00;26.50;;;;;;5022992;28;20527;-73
2023/07/08 12:56:02;;;;;;;3.57;3.23;;;41.40;26.10;;;;;;5025574;28;20468;-70
2023/07/08 12:58:34;;;;;;;4.67;3.00;;;41.70;26.00;;;;;;5024702;28;20958;-75
2023/07/08 13:01:04;;;;;;;3.23;2.60;;;42.30;25.90;;;;;;5024057;28;20535;-72
2023/07/08 13:03:37;;;;;;;3.03;2.83;;;42.40;26.10;;;;;;5024395;28;20445;-69